createdAt,value
2018-07-17T00:02:03.606Z,17.22
2018-07-17T00:04:30.861Z,17.23
2018-07-17T00:07:08.406Z,17.22
2018-07-17T00:09:35.709Z,17.17
2018-07-17T00:12:02.982Z,17.09
2018-07-17T00:14:30.235Z,17.01
2018-07-17T00:24:35.646Z,16.90
2018-07-17T00:27:02.908Z,16.80
2018-07-17T00:29:30.165Z,16.85
2018-07-17T00:31:57.447Z,16.91
2018-07-17T00:34:24.681Z,16.92
2018-07-17T00:36:51.928Z,16.89
2018-07-17T00:39:19.143Z,16.83
2018-07-17T00:41:46.402Z,16.74
2018-07-17T00:44:13.641Z,16.70
2018-07-17T00:46:40.906Z,16.67
2018-07-17T00:49:08.210Z,16.67
2018-07-17T00:51:35.457Z,16.72
2018-07-17T00:54:02.714Z,16.80
2018-07-17T00:56:29.970Z,16.81
2018-07-17T00:58:57.211Z,16.84
2018-07-17T01:01:30.137Z,16.83
2018-07-17T01:04:02.961Z,16.80
2018-07-17T01:06:35.898Z,16.79
2018-07-17T01:09:09.759Z,16.83
2018-07-17T01:11:42.785Z,16.90
2018-07-17T01:14:28.630Z,16.92
2018-07-17T01:16:55.945Z,16.87
2018-07-17T01:19:23.175Z,16.85
2018-07-17T01:21:50.502Z,16.85
2018-07-17T01:24:17.728Z,16.80
2018-07-17T01:26:45.006Z,16.79
2018-07-17T01:29:12.218Z,16.73
2018-07-17T01:31:39.616Z,16.64
2018-07-17T01:34:06.857Z,16.54
2018-07-17T01:36:34.216Z,16.46
2018-07-17T01:39:01.489Z,16.42
2018-07-17T01:41:28.777Z,16.37
2018-07-17T01:43:56.043Z,16.36
2018-07-17T01:46:23.283Z,16.35
2018-07-17T01:48:50.575Z,16.32
2018-07-17T01:51:17.919Z,16.24
2018-07-17T01:53:45.364Z,16.26
2018-07-17T01:56:12.591Z,16.26
2018-07-17T01:58:39.854Z,16.32
2018-07-17T02:01:07.304Z,16.36
2018-07-17T02:03:34.582Z,16.37
2018-07-17T02:06:01.846Z,16.34
2018-07-17T02:08:29.263Z,16.33
2018-07-17T02:10:56.504Z,16.26
2018-07-17T02:13:23.764Z,16.20
2018-07-17T02:16:11.470Z,16.12
2018-07-17T02:18:38.899Z,16.03
2018-07-17T02:21:06.441Z,15.98
2018-07-17T02:23:33.728Z,15.95
2018-07-17T02:26:01.039Z,16.00
2018-07-17T02:28:28.322Z,16.01
2018-07-17T02:30:55.604Z,16.00
2018-07-17T02:33:22.830Z,15.97
2018-07-17T02:35:50.099Z,15.94
2018-07-17T02:38:17.340Z,15.96
2018-07-17T02:40:44.570Z,15.96
2018-07-17T02:43:11.815Z,16.03
2018-07-17T02:45:39.079Z,16.10
2018-07-17T02:48:06.311Z,16.14
2018-07-17T02:50:33.592Z,16.16
2018-07-17T02:53:00.841Z,16.13
2018-07-17T02:55:28.141Z,16.01
2018-07-17T02:57:55.386Z,15.95
2018-07-17T03:00:22.724Z,15.93
2018-07-17T03:02:49.985Z,15.87
2018-07-17T03:05:17.330Z,15.89
2018-07-17T03:07:44.696Z,15.90
2018-07-17T03:10:12.101Z,15.94
2018-07-17T03:12:39.426Z,16.01
2018-07-17T03:15:06.774Z,16.08
2018-07-17T03:17:34.103Z,16.14
2018-07-17T03:20:03.333Z,16.22
2018-07-17T03:22:31.898Z,16.23
2018-07-17T03:25:00.412Z,16.23
2018-07-17T03:27:27.903Z,16.22
2018-07-17T03:29:55.201Z,16.21
2018-07-17T03:32:22.519Z,16.24
2018-07-17T03:34:49.838Z,16.24
2018-07-17T03:37:17.187Z,16.23
2018-07-17T03:39:45.078Z,16.21
2018-07-17T03:42:12.516Z,16.22
2018-07-17T03:44:39.844Z,16.22
2018-07-17T03:47:07.160Z,16.23
2018-07-17T03:49:34.467Z,16.30
2018-07-17T03:52:01.981Z,16.33
2018-07-17T03:54:29.313Z,16.43
2018-07-17T03:56:56.882Z,16.53
2018-07-17T03:59:24.318Z,16.59
2018-07-17T04:01:51.839Z,16.69
2018-07-17T04:04:19.236Z,16.73
2018-07-17T04:06:46.573Z,16.74
2018-07-17T04:09:14.479Z,16.78
2018-07-17T04:11:41.821Z,16.80
2018-07-17T04:14:09.186Z,16.84
2018-07-17T04:16:41.073Z,16.87
2018-07-17T04:19:08.642Z,16.93
2018-07-17T04:21:35.978Z,16.98
2018-07-17T04:24:03.411Z,17.07
2018-07-17T04:26:30.787Z,17.21
2018-07-17T04:28:58.142Z,17.33
2018-07-17T04:31:25.414Z,17.45
2018-07-17T04:33:52.816Z,17.55
2018-07-17T04:36:20.163Z,17.63
2018-07-17T04:38:47.565Z,17.73
2018-07-17T04:41:14.903Z,17.86
2018-07-17T04:43:42.248Z,18.01
2018-07-17T04:46:09.593Z,18.16
2018-07-17T04:48:37.766Z,18.32
2018-07-17T04:51:05.346Z,18.46
2018-07-17T04:53:32.651Z,18.63
2018-07-17T04:56:00.041Z,18.80
2018-07-17T04:58:27.332Z,19.00
2018-07-17T05:00:54.703Z,19.21
2018-07-17T05:03:21.999Z,19.39
2018-07-17T05:05:49.368Z,19.58
2018-07-17T05:08:16.811Z,19.77
2018-07-17T05:10:44.158Z,19.98
2018-07-17T05:13:11.508Z,20.20
2018-07-17T05:15:38.817Z,20.39
2018-07-17T05:18:06.123Z,20.59
2018-07-17T05:20:33.501Z,20.79
2018-07-17T05:23:00.854Z,20.96
2018-07-17T05:25:28.270Z,21.09
2018-07-17T05:27:56.424Z,21.34
2018-07-17T05:30:23.859Z,21.53
2018-07-17T05:32:51.177Z,21.75
2018-07-17T05:35:18.561Z,21.97
2018-07-17T05:37:45.908Z,22.13
2018-07-17T05:40:13.260Z,22.32
2018-07-17T05:42:40.696Z,22.54
2018-07-17T05:45:08.060Z,22.70
2018-07-17T05:47:39.937Z,22.82
2018-07-17T05:50:07.463Z,22.92
2018-07-17T05:52:35.885Z,23.00
2018-07-17T05:55:03.521Z,23.11
2018-07-17T05:57:31.132Z,23.52
2018-07-17T05:59:58.571Z,23.79
2018-07-17T06:02:25.854Z,23.96
2018-07-17T06:04:53.206Z,24.10
2018-07-17T06:07:20.561Z,24.43
2018-07-17T06:09:47.899Z,24.68
2018-07-17T06:12:15.298Z,24.64
2018-07-17T06:14:42.604Z,24.78
2018-07-17T06:17:10.243Z,24.95
2018-07-17T06:19:37.542Z,25.21
2018-07-17T06:22:04.958Z,25.48
2018-07-17T06:24:32.307Z,25.71
2018-07-17T06:26:59.618Z,25.98
2018-07-17T06:29:26.943Z,26.05
2018-07-17T06:31:54.214Z,26.31
2018-07-17T06:34:21.532Z,26.23
2018-07-17T06:36:48.866Z,26.08
2018-07-17T06:39:16.669Z,25.60
2018-07-17T06:41:44.019Z,25.48
2018-07-17T06:44:11.325Z,25.15
2018-07-17T06:46:38.659Z,24.93
2018-07-17T06:49:05.987Z,24.93
2018-07-17T06:51:33.334Z,25.03
2018-07-17T06:54:00.668Z,25.26
2018-07-17T06:56:27.998Z,25.56
2018-07-17T06:58:55.421Z,25.93
2018-07-17T07:01:22.709Z,26.68
2018-07-17T07:03:50.044Z,27.48
2018-07-17T07:06:17.323Z,28.05
2018-07-17T07:08:44.635Z,28.20
2018-07-17T07:11:12.588Z,28.15
2018-07-17T07:13:40.015Z,28.42
2018-07-17T07:16:08.307Z,28.98
2018-07-17T07:18:35.622Z,28.81
2018-07-17T07:21:02.968Z,28.85
2018-07-17T07:23:30.226Z,28.88
2018-07-17T07:25:57.641Z,28.52
2018-07-17T07:28:24.972Z,28.89
2018-07-17T07:30:52.324Z,28.64
2018-07-17T07:33:20.094Z,28.72
2018-07-17T07:35:47.551Z,29.25
2018-07-17T07:38:14.979Z,29.56
2018-07-17T07:40:42.392Z,29.08
2018-07-17T07:43:10.028Z,29.69
2018-07-17T07:45:37.371Z,29.80
2018-07-17T07:48:04.911Z,30.08
2018-07-17T07:50:32.334Z,30.45
2018-07-17T07:52:59.622Z,30.77
2018-07-17T07:55:27.211Z,30.83
2018-07-17T07:57:54.533Z,31.01
2018-07-17T08:00:21.835Z,30.93
2018-07-17T08:02:49.153Z,30.99
2018-07-17T08:05:16.549Z,30.78
2018-07-17T08:07:43.967Z,30.59
2018-07-17T08:10:11.333Z,30.95
2018-07-17T08:12:38.803Z,31.52
2018-07-17T08:15:06.200Z,31.55
2018-07-17T08:17:33.579Z,31.96
2018-07-17T08:20:00.877Z,32.05
2018-07-17T08:22:28.886Z,31.94
2018-07-17T08:24:56.277Z,31.91
2018-07-17T08:27:23.675Z,32.26
2018-07-17T08:29:51.078Z,32.03
2018-07-17T08:32:18.438Z,31.87
2018-07-17T08:34:45.730Z,32.07
2018-07-17T08:37:16.666Z,31.87
2018-07-17T08:39:43.986Z,31.14
2018-07-17T08:42:11.493Z,31.65
2018-07-17T08:44:38.781Z,31.96
2018-07-17T08:47:06.151Z,32.24
2018-07-17T08:49:33.543Z,32.66
2018-07-17T08:52:00.843Z,33.23
2018-07-17T08:54:28.247Z,32.92
2018-07-17T08:56:55.513Z,33.12
2018-07-17T08:59:22.900Z,32.96
2018-07-17T09:01:50.375Z,33.38
2018-07-17T09:04:17.927Z,33.67
2018-07-17T09:06:45.209Z,33.92
2018-07-17T09:09:12.583Z,33.99
2018-07-17T09:11:40.449Z,33.83
2018-07-17T09:14:07.833Z,33.85
2018-07-17T09:16:35.148Z,33.47
2018-07-17T09:19:02.565Z,34.16
2018-07-17T09:21:29.857Z,34.06
2018-07-17T09:23:57.191Z,33.54
2018-07-17T09:26:24.517Z,33.59
2018-07-17T09:28:51.852Z,33.93
2018-07-17T09:31:19.215Z,34.04
2018-07-17T09:33:46.553Z,35.15
2018-07-17T09:36:13.878Z,35.34
2018-07-17T09:38:41.216Z,34.92
2018-07-17T09:41:08.680Z,35.13
2018-07-17T09:43:36.052Z,35.30
2018-07-17T09:46:03.453Z,35.41
2018-07-17T09:48:30.745Z,34.76
2018-07-17T09:50:59.059Z,34.49
2018-07-17T09:53:26.578Z,35.11
2018-07-17T09:55:53.887Z,35.35
2018-07-17T09:58:22.271Z,35.23
2018-07-17T10:00:55.292Z,35.50
2018-07-17T10:03:23.166Z,35.41
2018-07-17T10:05:50.464Z,34.55
2018-07-17T10:08:17.895Z,35.17
2018-07-17T10:10:45.250Z,35.73
2018-07-17T10:13:12.557Z,36.11
2018-07-17T10:15:39.878Z,35.34
2018-07-17T10:18:07.246Z,35.94
2018-07-17T10:20:34.552Z,36.53
2018-07-17T10:23:01.919Z,35.69
2018-07-17T10:25:29.283Z,35.91
2018-07-17T10:27:56.558Z,36.58
2018-07-17T10:30:23.900Z,36.43
2018-07-17T10:32:51.230Z,35.23
2018-07-17T10:35:18.579Z,35.01
2018-07-17T10:37:45.972Z,35.11
2018-07-17T10:40:13.450Z,35.30
2018-07-17T10:42:41.738Z,35.53
2018-07-17T10:45:09.118Z,36.54
2018-07-17T10:47:36.548Z,36.74
2018-07-17T10:50:03.922Z,36.08
2018-07-17T10:52:31.505Z,36.44
2018-07-17T10:54:59.030Z,37.20
2018-07-17T10:57:26.392Z,37.12
2018-07-17T10:59:53.735Z,35.91
2018-07-17T11:02:21.138Z,36.56
2018-07-17T11:04:48.581Z,36.46
2018-07-17T11:07:16.446Z,36.66
2018-07-17T11:09:43.760Z,34.96
2018-07-17T11:12:11.067Z,35.83
2018-07-17T11:14:38.518Z,35.66
2018-07-17T11:17:06.726Z,36.15
2018-07-17T11:19:34.008Z,35.70
2018-07-17T11:22:01.457Z,35.29
2018-07-17T11:24:28.766Z,34.51
2018-07-17T11:26:56.122Z,34.52
2018-07-17T11:29:24.240Z,35.28
2018-07-17T11:31:51.556Z,35.66
2018-07-17T11:34:18.971Z,35.70
2018-07-17T11:36:46.317Z,35.57
2018-07-17T11:39:13.649Z,35.24
2018-07-17T11:41:41.027Z,35.05
2018-07-17T11:44:08.403Z,34.20
2018-07-17T11:46:35.733Z,33.49
2018-07-17T11:49:03.120Z,33.72
2018-07-17T11:51:30.456Z,33.90
2018-07-17T11:53:57.814Z,34.29
2018-07-17T11:56:25.344Z,34.93
2018-07-17T11:58:52.737Z,34.87
2018-07-17T12:01:21.161Z,34.63
2018-07-17T12:03:48.494Z,34.92
2018-07-17T12:06:15.788Z,34.81
2018-07-17T12:08:43.113Z,35.31
2018-07-17T12:11:11.077Z,35.63
2018-07-17T12:13:38.450Z,36.08
2018-07-17T12:16:05.900Z,36.09
2018-07-17T12:18:33.242Z,36.36
2018-07-17T12:21:01.150Z,36.53
2018-07-17T12:23:28.519Z,36.39
2018-07-17T12:25:55.852Z,35.99
2018-07-17T12:28:23.204Z,36.11
2018-07-17T12:30:50.879Z,36.40
2018-07-17T12:33:18.147Z,35.25
2018-07-17T12:35:46.142Z,35.79
2018-07-17T12:38:13.446Z,35.85
2018-07-17T12:40:40.801Z,35.18
2018-07-17T12:43:08.099Z,35.31
2018-07-17T12:45:35.459Z,35.69
2018-07-17T12:48:02.855Z,35.03
2018-07-17T12:50:30.214Z,35.39
2018-07-17T12:52:58.519Z,35.44
2018-07-17T12:55:25.980Z,35.02
2018-07-17T12:57:54.926Z,35.04
2018-07-17T13:00:22.302Z,34.98
2018-07-17T13:02:50.047Z,34.57
2018-07-17T13:05:18.438Z,34.71
2018-07-17T13:08:02.059Z,33.78
2018-07-17T13:10:29.459Z,33.83
2018-07-17T13:12:56.899Z,33.67
2018-07-17T13:15:24.248Z,33.58
2018-07-17T13:17:51.612Z,32.89
2018-07-17T13:20:19.050Z,33.19
2018-07-17T13:22:46.390Z,33.41
2018-07-17T13:25:14.430Z,33.76
2018-07-17T13:27:41.758Z,33.22
2018-07-17T13:30:09.086Z,33.14
2018-07-17T13:32:36.694Z,33.43
2018-07-17T13:35:04.167Z,33.45
2018-07-17T13:37:31.766Z,33.27
2018-07-17T13:39:59.112Z,32.93
2018-07-17T13:42:26.450Z,32.90
2018-07-17T13:44:53.901Z,33.18
2018-07-17T13:47:21.180Z,32.80
2018-07-17T13:49:49.219Z,32.93
2018-07-17T13:52:16.593Z,32.86
2018-07-17T13:54:43.916Z,32.87
2018-07-17T13:57:11.248Z,32.75
2018-07-17T13:59:38.621Z,32.22
2018-07-17T14:02:06.811Z,32.23
2018-07-17T14:04:34.148Z,32.34
2018-07-17T14:07:01.662Z,32.22
2018-07-17T14:09:29.087Z,32.22
2018-07-17T14:11:56.411Z,32.31
2018-07-17T14:14:24.456Z,32.46
2018-07-17T14:16:52.066Z,32.51
2018-07-17T14:19:19.358Z,32.76
2018-07-17T14:21:46.674Z,32.56
2018-07-17T14:24:14.185Z,32.75
2018-07-17T14:26:41.487Z,32.32
2018-07-17T14:29:08.914Z,32.49
2018-07-17T14:31:36.414Z,31.96
2018-07-17T14:34:03.787Z,31.85
2018-07-17T14:36:31.118Z,31.50
2018-07-17T14:38:58.444Z,31.64
2018-07-17T14:41:26.211Z,31.80
2018-07-17T14:43:53.572Z,32.03
2018-07-17T14:46:20.922Z,32.13
2018-07-17T14:48:48.287Z,31.57
2018-07-17T14:51:15.639Z,31.58
2018-07-17T14:53:42.981Z,31.32
2018-07-17T14:56:10.512Z,31.45
2018-07-17T14:58:37.847Z,31.71
2018-07-17T15:01:05.910Z,31.40
2018-07-17T15:03:33.599Z,31.38
2018-07-17T15:06:01.123Z,31.51
2018-07-17T15:08:28.855Z,31.52
2018-07-17T15:10:57.304Z,31.48
2018-07-17T15:13:24.661Z,31.18
2018-07-17T15:15:52.087Z,31.22
2018-07-17T15:18:20.056Z,31.44
2018-07-17T15:20:47.381Z,31.16
2018-07-17T15:23:14.721Z,31.18
2018-07-17T15:25:42.103Z,31.27
2018-07-17T15:28:09.425Z,31.17
2018-07-17T15:30:36.854Z,31.30
2018-07-17T15:33:04.627Z,31.03
2018-07-17T15:35:33.672Z,30.95
2018-07-17T15:38:13.829Z,31.08
2018-07-17T15:40:41.269Z,31.19
2018-07-17T15:43:09.301Z,31.04
2018-07-17T15:45:36.766Z,31.00
2018-07-17T15:48:04.057Z,31.14
2018-07-17T15:50:32.654Z,31.05
2018-07-17T15:53:00.107Z,30.78
2018-07-17T15:55:27.424Z,30.75
2018-07-17T15:57:54.999Z,30.75
2018-07-17T16:00:22.352Z,30.76
2018-07-17T16:02:49.745Z,30.69
2018-07-17T16:05:17.574Z,30.46
2018-07-17T16:07:45.097Z,30.36
2018-07-17T16:10:12.443Z,30.37
2018-07-17T16:12:39.846Z,30.40
2018-07-17T16:15:07.334Z,30.42
2018-07-17T16:17:35.045Z,30.32
2018-07-17T16:20:03.344Z,30.29
2018-07-17T16:22:30.581Z,30.26
2018-07-17T16:24:57.984Z,30.33
2018-07-17T16:27:25.374Z,30.37
2018-07-17T16:29:52.749Z,30.29
2018-07-17T16:32:20.132Z,30.19
2018-07-17T16:34:47.449Z,30.31
2018-07-17T16:37:14.783Z,30.23
2018-07-17T16:39:42.210Z,30.15
2018-07-17T16:42:09.569Z,30.16
2018-07-17T16:44:37.089Z,30.09
2018-07-17T16:47:04.380Z,30.11
2018-07-17T16:49:31.718Z,30.03
2018-07-17T16:51:59.129Z,29.98
2018-07-17T16:54:26.460Z,29.92
2018-07-17T16:56:53.794Z,29.94
2018-07-17T16:59:21.209Z,29.81
2018-07-17T17:01:48.590Z,29.78
2018-07-17T17:04:15.938Z,29.72
2018-07-17T17:06:43.279Z,29.63
2018-07-17T17:09:11.568Z,29.53
2018-07-17T17:11:38.871Z,29.45
2018-07-17T17:14:06.265Z,29.46
2018-07-17T17:16:33.578Z,29.51
2018-07-17T17:19:00.941Z,29.43
2018-07-17T17:21:28.463Z,29.34
2018-07-17T17:23:55.853Z,29.25
2018-07-17T17:26:24.238Z,29.14
2018-07-17T17:28:51.551Z,29.16
2018-07-17T17:31:18.957Z,29.13
2018-07-17T17:33:46.288Z,29.05
2018-07-17T17:36:13.634Z,28.87
2018-07-17T17:38:40.980Z,28.85
2018-07-17T17:41:08.351Z,28.81
2018-07-17T17:43:35.710Z,28.65
2018-07-17T17:46:03.246Z,28.59
2018-07-17T17:48:30.572Z,28.61
2018-07-17T17:50:57.917Z,28.58
2018-07-17T17:53:26.425Z,28.47
2018-07-17T17:55:54.436Z,28.40
2018-07-17T17:58:21.720Z,28.33
2018-07-17T18:00:49.362Z,28.35
2018-07-17T18:03:16.917Z,28.26
2018-07-17T18:05:45.422Z,28.15
2018-07-17T18:08:12.867Z,28.07
2018-07-17T18:10:40.299Z,28.00
2018-07-17T18:13:08.120Z,27.96
2018-07-17T18:15:35.734Z,27.90
2018-07-17T18:18:03.838Z,27.88
2018-07-17T18:20:33.609Z,27.82
2018-07-17T18:23:01.268Z,27.79
2018-07-17T18:25:28.625Z,27.72
2018-07-17T18:27:56.022Z,27.67
2018-07-17T18:30:23.334Z,27.57
2018-07-17T18:32:51.042Z,27.51
2018-07-17T18:35:18.440Z,27.45
2018-07-17T18:37:46.526Z,27.41
2018-07-17T18:40:13.902Z,27.33
2018-07-17T18:42:42.095Z,27.27
2018-07-17T18:45:09.487Z,27.21
2018-07-17T18:47:39.264Z,27.15
2018-07-17T18:50:12.869Z,27.04
2018-07-17T18:52:34.484Z,26.95
2018-07-17T18:55:01.860Z,26.87
2018-07-17T18:57:29.287Z,26.81
2018-07-17T18:59:56.734Z,26.80
2018-07-17T19:02:24.231Z,26.70
2018-07-17T19:04:52.825Z,26.62
2018-07-17T19:07:20.232Z,26.56
2018-07-17T19:09:48.443Z,26.45
2018-07-17T19:12:16.295Z,26.41
2018-07-17T19:14:43.824Z,26.30
2018-07-17T19:17:11.394Z,26.25
2018-07-17T19:19:38.854Z,26.19
2018-07-17T19:22:06.788Z,26.13
2018-07-17T19:24:34.159Z,26.12
2018-07-17T19:27:02.985Z,26.04
2018-07-17T19:29:30.416Z,25.97
2018-07-17T19:31:58.913Z,25.91
2018-07-17T19:34:26.576Z,25.87
2018-07-17T19:36:54.768Z,25.81
2018-07-17T19:39:22.103Z,25.78
2018-07-17T19:41:49.421Z,25.79
2018-07-17T19:44:16.815Z,25.76
2018-07-17T19:46:44.111Z,25.76
2018-07-17T19:49:11.462Z,25.73
2018-07-17T19:51:38.789Z,25.71
2018-07-17T19:54:06.139Z,25.72
2018-07-17T19:56:33.562Z,25.66
2018-07-17T19:59:00.974Z,25.66
2018-07-17T20:01:28.309Z,25.63
2018-07-17T20:03:55.634Z,25.61
2018-07-17T20:06:23.055Z,25.56
2018-07-17T20:08:50.391Z,25.50
2018-07-17T20:11:17.850Z,25.49
2018-07-17T20:13:45.181Z,25.43
2018-07-17T20:16:12.486Z,25.36
2018-07-17T20:18:39.761Z,25.34
2018-07-17T20:21:07.075Z,25.27
2018-07-17T20:23:34.562Z,25.22
2018-07-17T20:26:01.994Z,25.15
2018-07-17T20:28:29.309Z,25.02
2018-07-17T20:30:56.821Z,24.95
2018-07-17T20:33:24.089Z,24.87
2018-07-17T20:35:51.325Z,24.81
2018-07-17T20:38:18.610Z,24.73
2018-07-17T20:40:45.906Z,24.63
2018-07-17T20:43:13.177Z,24.58
2018-07-17T20:45:40.413Z,24.54
2018-07-17T20:48:07.693Z,24.52
2018-07-17T20:50:34.915Z,24.46
2018-07-17T20:53:02.226Z,24.40
2018-07-17T20:55:29.459Z,24.33
2018-07-17T20:57:56.739Z,24.31
2018-07-17T21:00:23.992Z,24.26
2018-07-17T21:02:51.396Z,24.21
2018-07-17T21:05:18.661Z,24.21
2018-07-17T21:07:45.935Z,24.14
2018-07-17T21:10:13.178Z,24.10
2018-07-17T21:12:40.426Z,24.03
2018-07-17T21:15:07.707Z,23.99
2018-07-17T21:17:34.969Z,23.93
2018-07-17T21:20:02.228Z,23.89
2018-07-17T21:22:29.519Z,23.83
2018-07-17T21:24:56.763Z,23.73
2018-07-17T21:27:24.049Z,23.63
2018-07-17T21:29:51.311Z,23.55
2018-07-17T21:32:18.570Z,23.47
2018-07-17T21:34:45.809Z,23.37
2018-07-17T21:37:13.061Z,23.19
2018-07-17T21:39:40.318Z,23.02
2018-07-17T21:42:07.676Z,22.91
2018-07-17T21:44:34.944Z,22.73
2018-07-17T21:47:02.282Z,22.54
2018-07-17T21:49:29.561Z,22.38
2018-07-17T21:51:56.809Z,22.32
2018-07-17T21:54:24.259Z,22.27
2018-07-17T21:56:51.501Z,22.20
2018-07-17T21:59:19.129Z,22.13
2018-07-17T22:01:46.366Z,22.02
2018-07-17T22:04:13.625Z,21.93
2018-07-17T22:06:40.849Z,21.90
2018-07-17T22:09:10.130Z,21.85
2018-07-17T22:11:37.375Z,21.80
2018-07-17T22:14:04.747Z,21.75
2018-07-17T22:16:32.006Z,21.72
2018-07-17T22:18:59.244Z,21.69
2018-07-17T22:21:26.493Z,21.70
2018-07-17T22:23:53.726Z,21.62
2018-07-17T22:26:23.134Z,21.53
2018-07-17T22:28:50.374Z,21.50
2018-07-17T22:31:17.654Z,21.47
2018-07-17T22:33:44.855Z,21.48
2018-07-17T22:36:12.174Z,21.47
2018-07-17T22:38:39.398Z,21.45
2018-07-17T22:41:06.706Z,21.50
2018-07-17T22:43:33.949Z,21.57
2018-07-17T22:46:01.194Z,21.62
2018-07-17T22:48:28.406Z,21.65
2018-07-17T22:50:55.683Z,21.66
2018-07-17T22:53:23.008Z,21.67
2018-07-17T22:55:50.324Z,21.67
2018-07-17T22:58:17.574Z,21.63
2018-07-17T23:00:44.792Z,21.64
2018-07-17T23:03:12.109Z,21.61
2018-07-17T23:05:39.349Z,21.58
2018-07-17T23:08:06.687Z,21.55
2018-07-17T23:10:33.918Z,21.55
2018-07-17T23:13:01.200Z,21.54
2018-07-17T23:15:28.461Z,21.55
2018-07-17T23:17:55.730Z,21.47
2018-07-17T23:20:22.973Z,21.54
2018-07-17T23:22:54.235Z,21.52
2018-07-17T23:25:22.751Z,21.53
2018-07-17T23:27:49.957Z,21.54
2018-07-17T23:30:17.673Z,21.57
2018-07-17T23:32:45.100Z,21.55
2018-07-17T23:35:12.338Z,21.52
2018-07-17T23:37:39.558Z,21.56
2018-07-17T23:40:06.818Z,21.52
2018-07-17T23:42:34.658Z,21.40
2018-07-17T23:45:01.895Z,21.41
2018-07-17T23:47:29.183Z,21.39
2018-07-17T23:49:56.454Z,21.42
2018-07-17T23:52:23.665Z,21.46
2018-07-17T23:54:50.917Z,21.44
2018-07-17T23:57:18.115Z,21.30
2018-07-17T23:59:45.374Z,21.17
